createdAt,value
2023-04-25T00:00:10.412Z,3.00
2023-04-25T00:02:44.862Z,3.40
2023-04-25T00:05:23.666Z,3.90
2023-04-25T00:07:55.185Z,3.80
2023-04-25T00:10:26.596Z,3.60
2023-04-25T00:12:58.769Z,4.30
2023-04-25T00:15:31.294Z,3.10
2023-04-25T00:18:02.658Z,4.10
2023-04-25T00:20:34.034Z,3.70
2023-04-25T00:23:05.682Z,4.30
2023-04-25T00:25:36.986Z,3.70
2023-04-25T00:28:08.448Z,3.60
2023-04-25T00:30:39.807Z,3.20
2023-04-25T00:33:11.553Z,4.20
2023-04-25T00:38:13.074Z,4.20
2023-04-25T00:43:16.306Z,3.30
2023-04-25T00:45:47.636Z,4.40
2023-04-25T00:48:19.054Z,3.90
2023-04-25T00:50:53.740Z,3.80
2023-04-25T00:53:25.358Z,3.60
2023-04-25T00:55:56.866Z,4.20
2023-04-25T00:58:28.319Z,4.00
2023-04-25T01:00:59.752Z,4.40
2023-04-25T01:03:31.979Z,4.60
2023-04-25T01:06:03.897Z,3.90
2023-04-25T01:08:35.689Z,3.80
2023-04-25T01:11:07.095Z,4.50
2023-04-25T01:13:38.539Z,4.00
2023-04-25T01:16:10.510Z,3.90
2023-04-25T01:18:42.311Z,4.40
2023-04-25T01:21:14.403Z,4.10
2023-04-25T01:23:46.373Z,4.00
2023-04-25T01:26:17.780Z,4.10
2023-04-25T01:28:49.091Z,4.70
2023-04-25T01:31:20.482Z,4.30
2023-04-25T01:33:52.359Z,4.50
2023-04-25T01:36:23.999Z,3.70
2023-04-25T01:38:55.352Z,3.10
2023-04-25T01:41:27.152Z,4.20
2023-04-25T01:43:58.547Z,4.50
2023-04-25T01:46:29.923Z,4.40
2023-04-25T01:49:01.370Z,4.70
2023-04-25T01:51:32.856Z,4.30
2023-04-25T01:54:04.288Z,4.90
2023-04-25T01:56:36.138Z,4.00
2023-04-25T01:59:07.905Z,4.60
2023-04-25T02:02:08.862Z,4.20
2023-04-25T02:04:40.599Z,4.80
2023-04-25T02:07:12.968Z,4.60
2023-04-25T02:12:27.425Z,4.00
2023-04-25T02:15:17.613Z,4.50
2023-04-25T02:17:55.745Z,3.80
2023-04-25T02:20:27.118Z,5.20
2023-04-25T02:22:58.479Z,4.50
2023-04-25T02:25:30.683Z,4.70
2023-04-25T02:28:02.319Z,4.60
2023-04-25T02:30:34.521Z,4.50
2023-04-25T02:33:05.942Z,5.00
2023-04-25T02:35:37.540Z,4.60
2023-04-25T02:38:08.828Z,5.60
2023-04-25T02:40:40.145Z,4.70
2023-04-25T02:43:11.595Z,4.70
2023-04-25T02:45:42.899Z,4.60
2023-04-25T02:48:14.293Z,5.00
2023-04-25T02:50:45.980Z,5.30
2023-04-25T02:53:17.526Z,5.00
2023-04-25T02:55:54.090Z,4.80
2023-04-25T02:58:25.720Z,5.80
2023-04-25T03:00:58.050Z,7.20
2023-04-25T03:03:29.541Z,5.90
2023-04-25T03:06:01.073Z,6.00
2023-04-25T03:08:35.692Z,5.00
2023-04-25T03:11:07.356Z,4.30
2023-04-25T03:13:40.050Z,4.90
2023-04-25T03:16:12.726Z,5.10
2023-04-25T03:18:44.166Z,5.60
2023-04-25T03:21:15.827Z,4.30
2023-04-25T03:23:47.328Z,4.90
2023-04-25T03:26:18.856Z,5.60
2023-04-25T03:28:50.723Z,4.90
2023-04-25T03:31:23.561Z,4.60
2023-04-25T03:33:55.004Z,5.30
2023-04-25T03:36:27.471Z,5.50
2023-04-25T03:38:58.849Z,5.80
2023-04-25T03:41:31.056Z,5.30
2023-04-25T03:44:08.206Z,5.60
2023-04-25T03:46:39.753Z,5.20
2023-04-25T03:49:11.157Z,5.30
2023-04-25T03:51:58.512Z,5.20
2023-04-25T03:54:30.264Z,5.20
2023-04-25T03:57:09.873Z,5.20
2023-04-25T03:59:43.340Z,5.90
2023-04-25T04:02:16.291Z,5.30
2023-04-25T04:04:48.376Z,5.00
2023-04-25T04:07:20.306Z,5.10
2023-04-25T04:09:55.021Z,4.80
2023-04-25T04:12:34.854Z,5.00
2023-04-25T04:15:09.231Z,5.00
2023-04-25T04:17:41.974Z,4.40
2023-04-25T04:20:14.294Z,4.50
2023-04-25T04:22:46.757Z,4.90
2023-04-25T04:25:19.841Z,5.30
2023-04-25T04:28:28.002Z,5.90
2023-04-25T04:31:04.067Z,5.20
2023-04-25T04:33:36.000Z,5.50
2023-04-25T04:36:10.308Z,4.80
2023-04-25T04:38:43.782Z,5.30
2023-04-25T04:41:23.692Z,5.20
2023-04-25T04:44:02.412Z,5.00
2023-04-25T04:46:43.546Z,4.80
2023-04-25T04:49:34.255Z,5.30
2023-04-25T04:52:25.592Z,5.90
2023-04-25T04:55:17.274Z,5.10
2023-04-25T04:58:12.030Z,5.20
2023-04-25T05:00:58.992Z,4.90
2023-04-25T05:03:53.725Z,5.70
2023-04-25T05:06:48.199Z,5.80
2023-04-25T05:09:46.711Z,4.80
2023-04-25T05:12:34.077Z,4.70
2023-04-25T05:15:22.431Z,5.80
2023-04-25T05:18:15.856Z,5.40
2023-04-25T05:20:53.036Z,5.30
2023-04-25T05:23:41.273Z,5.60
2023-04-25T05:26:32.082Z,6.30
2023-04-25T05:29:39.518Z,5.80
2023-04-25T05:32:24.843Z,5.50
2023-04-25T05:34:56.923Z,5.80
2023-04-25T05:37:33.997Z,5.90
2023-04-25T05:40:16.930Z,5.50
2023-04-25T05:42:58.930Z,5.10
2023-04-25T05:45:49.205Z,5.20
2023-04-25T05:51:22.193Z,6.00
2023-04-25T05:53:54.112Z,5.80
2023-04-25T05:56:26.100Z,5.50
2023-04-25T05:58:59.274Z,5.90
2023-04-25T06:01:31.494Z,4.70
2023-04-25T06:04:03.880Z,5.10
2023-04-25T06:06:36.285Z,5.50
2023-04-25T06:09:07.693Z,5.30
2023-04-25T06:11:39.189Z,5.10
2023-04-25T06:14:11.240Z,4.90
2023-04-25T06:16:44.963Z,4.70
2023-04-25T06:21:47.478Z,5.20
2023-04-25T06:24:19.031Z,5.00
2023-04-25T06:26:50.670Z,5.00
2023-04-25T06:29:22.064Z,4.80
2023-04-25T06:31:53.678Z,4.80
2023-04-25T06:34:25.807Z,4.90
2023-04-25T06:36:57.769Z,5.10
2023-04-25T06:42:00.730Z,5.20
2023-04-25T06:44:55.839Z,4.80
2023-04-25T06:47:27.698Z,4.70
2023-04-25T06:52:29.983Z,4.90
2023-04-25T06:57:54.566Z,4.90
2023-04-25T07:00:52.054Z,5.50
2023-04-25T07:03:25.413Z,5.20
2023-04-25T07:06:01.182Z,5.80
2023-04-25T07:08:34.516Z,5.10
2023-04-25T07:11:06.707Z,4.70
2023-04-25T07:13:38.216Z,5.90
2023-04-25T07:16:10.353Z,5.50
2023-04-25T07:18:41.916Z,5.10
2023-04-25T07:21:14.280Z,5.00
2023-04-25T07:23:46.641Z,4.80
2023-04-25T07:26:21.181Z,4.50
2023-04-25T07:29:28.284Z,4.50
2023-04-25T07:32:00.119Z,5.00
2023-04-25T07:37:03.733Z,4.30
2023-04-25T07:39:40.245Z,4.60
2023-04-25T07:42:11.692Z,5.70
2023-04-25T07:44:44.754Z,5.30
2023-04-25T07:47:17.398Z,5.10
2023-04-25T07:49:48.885Z,4.40
2023-04-25T07:52:20.401Z,4.60
2023-04-25T07:54:55.666Z,4.60
2023-04-25T07:57:32.937Z,5.10
2023-04-25T08:00:04.739Z,4.50
2023-04-25T08:02:45.452Z,4.50
2023-04-25T08:05:22.809Z,4.40
2023-04-25T08:08:00.426Z,4.50
2023-04-25T08:10:32.791Z,4.90
2023-04-25T08:13:04.212Z,4.70
2023-04-25T08:15:35.822Z,5.60
2023-04-25T08:20:38.145Z,5.00
2023-04-25T08:23:11.926Z,4.50
2023-04-25T08:26:07.077Z,5.00
2023-04-25T08:28:40.183Z,5.80
2023-04-25T08:33:50.691Z,4.90
2023-04-25T08:39:04.538Z,5.50
2023-04-25T08:44:06.338Z,5.60
2023-04-25T08:46:37.993Z,4.80
2023-04-25T08:49:27.665Z,5.40
2023-04-25T08:54:35.624Z,5.10
2023-04-25T08:57:08.807Z,4.80
2023-04-25T08:59:40.241Z,5.10
2023-04-25T09:02:15.876Z,5.60
2023-04-25T09:04:48.874Z,5.20
2023-04-25T09:07:22.524Z,4.90
2023-04-25T09:09:55.450Z,6.70
2023-04-25T09:12:27.063Z,4.80
2023-04-25T09:15:09.973Z,4.90
2023-04-25T09:18:07.689Z,5.20
2023-04-25T09:23:24.546Z,5.50
2023-04-25T09:25:57.384Z,6.60
2023-04-25T09:28:30.932Z,5.80
2023-04-25T09:31:03.473Z,6.30
2023-04-25T09:33:41.315Z,6.30
2023-04-25T09:36:14.488Z,6.60
2023-04-25T09:38:53.784Z,6.60
2023-04-25T09:41:29.276Z,6.30
2023-04-25T09:44:05.515Z,5.70
2023-04-25T09:46:41.084Z,5.50
2023-04-25T09:49:22.853Z,6.30
2023-04-25T09:52:15.349Z,5.90
2023-04-25T09:55:00.381Z,6.10
2023-04-25T09:57:36.800Z,5.90
2023-04-25T10:00:14.145Z,6.50
2023-04-25T10:02:49.350Z,5.80
2023-04-25T10:05:47.389Z,6.50
2023-04-25T10:08:18.979Z,6.40
2023-04-25T10:10:52.100Z,7.60
2023-04-25T10:13:23.495Z,7.20
2023-04-25T10:15:55.523Z,5.70
2023-04-25T10:18:26.910Z,7.10
2023-04-25T10:23:29.597Z,6.60
2023-04-25T10:28:30.953Z,7.20
2023-04-25T10:31:04.519Z,6.20
2023-04-25T10:33:38.382Z,6.40
2023-04-25T10:36:17.225Z,7.00
2023-04-25T10:38:49.452Z,7.50
2023-04-25T10:41:21.749Z,6.40
2023-04-25T10:44:01.157Z,6.00
2023-04-25T10:46:33.070Z,6.20
2023-04-25T10:49:05.027Z,5.90
2023-04-25T10:51:54.435Z,5.80
2023-04-25T10:54:27.377Z,5.30
2023-04-25T10:56:58.929Z,4.60
2023-04-25T10:59:30.692Z,5.00
2023-04-25T11:02:02.414Z,6.20
2023-04-25T11:04:35.821Z,6.10
2023-04-25T11:07:12.771Z,6.30
2023-04-25T11:09:44.345Z,5.80
2023-04-25T11:14:46.999Z,5.10
2023-04-25T11:17:18.509Z,5.60
2023-04-25T11:19:52.250Z,5.40
2023-04-25T11:22:23.888Z,5.70
2023-04-25T11:27:26.119Z,5.20
2023-04-25T11:29:57.652Z,5.70
2023-04-25T11:34:59.667Z,4.80
2023-04-25T11:40:01.262Z,6.10
2023-04-25T11:42:32.868Z,6.50
2023-04-25T11:45:05.452Z,6.10
2023-04-25T11:47:37.038Z,5.80
2023-04-25T11:50:09.903Z,6.00
2023-04-25T11:52:42.941Z,6.10
2023-04-25T11:55:17.339Z,6.20
2023-04-25T11:57:50.114Z,6.10
2023-04-25T12:00:23.853Z,6.70
2023-04-25T12:02:59.272Z,6.50
2023-04-25T12:05:33.919Z,6.00
2023-04-25T12:08:16.037Z,5.40
2023-04-25T12:10:47.964Z,5.10
2023-04-25T12:13:26.622Z,4.60
2023-04-25T12:15:59.705Z,4.60
2023-04-25T12:18:31.574Z,4.00
2023-04-25T12:21:02.984Z,4.80
2023-04-25T12:23:34.524Z,4.90
2023-04-25T12:26:06.773Z,4.10
2023-04-25T12:28:40.042Z,3.80
2023-04-25T12:31:11.703Z,4.00
2023-04-25T12:38:46.526Z,3.80
2023-04-25T12:41:18.211Z,4.10
2023-04-25T12:46:19.361Z,3.80
2023-04-25T12:51:21.443Z,3.20
2023-04-25T12:53:52.895Z,3.50
2023-04-25T12:56:25.690Z,3.20
2023-04-25T12:58:57.514Z,3.50
2023-04-25T13:01:29.196Z,3.40
2023-04-25T13:04:01.216Z,3.70
2023-04-25T13:06:33.382Z,3.20
2023-04-25T13:09:04.767Z,3.40
2023-04-25T13:11:36.680Z,3.60
2023-04-25T13:14:09.029Z,3.60
2023-04-25T13:16:40.926Z,3.20
2023-04-25T13:19:13.983Z,3.20
2023-04-25T13:21:46.166Z,3.30
2023-04-25T13:24:17.839Z,3.30
2023-04-25T13:26:49.579Z,2.30
2023-04-25T13:31:50.831Z,2.80
2023-04-25T13:34:22.249Z,3.00
2023-04-25T13:36:53.826Z,2.60
2023-04-25T13:39:25.896Z,2.90
2023-04-25T13:41:57.343Z,2.80
2023-04-25T13:46:58.596Z,2.90
2023-04-25T13:51:59.944Z,3.00
2023-04-25T13:57:04.107Z,3.50
2023-04-25T13:59:35.823Z,3.30
2023-04-25T14:02:07.170Z,4.10
2023-04-25T14:04:38.705Z,4.10
2023-04-25T14:07:10.296Z,3.70
2023-04-25T14:12:12.510Z,3.60
2023-04-25T14:14:44.496Z,4.00
2023-04-25T14:17:16.175Z,4.30
2023-04-25T14:19:49.376Z,3.90
2023-04-25T14:22:20.850Z,4.20
2023-04-25T14:24:52.457Z,4.20
2023-04-25T14:27:25.385Z,3.90
2023-04-25T14:29:57.797Z,4.40
2023-04-25T14:34:59.618Z,4.00
2023-04-25T14:40:01.058Z,3.80
2023-04-25T14:45:02.888Z,3.90
2023-04-25T14:47:34.315Z,3.90
2023-04-25T14:52:36.117Z,3.90
2023-04-25T14:55:08.767Z,3.90
2023-04-25T14:57:40.649Z,4.10
2023-04-25T15:00:17.688Z,3.90
2023-04-25T15:02:49.376Z,3.40
2023-04-25T15:05:21.292Z,3.30
2023-04-25T15:07:52.824Z,4.00
2023-04-25T15:10:24.805Z,3.70
2023-04-25T15:12:56.709Z,3.30
2023-04-25T15:15:28.072Z,2.90
2023-04-25T15:17:59.762Z,3.50
2023-04-25T15:20:31.422Z,3.60
2023-04-25T15:25:32.703Z,3.40
2023-04-25T15:30:35.538Z,2.90
2023-04-25T15:33:07.201Z,3.80
2023-04-25T15:35:38.636Z,3.10
2023-04-25T15:38:11.473Z,4.00
2023-04-25T15:40:43.202Z,3.80
2023-04-25T15:43:16.489Z,2.90
2023-04-25T15:45:48.772Z,3.20
2023-04-25T15:48:21.554Z,3.20
2023-04-25T15:50:53.494Z,3.20
2023-04-25T15:55:55.423Z,3.10
2023-04-25T15:58:27.690Z,3.20
2023-04-25T16:00:59.206Z,2.90
2023-04-25T16:03:32.243Z,3.10
2023-04-25T16:06:05.600Z,3.70
2023-04-25T16:08:37.184Z,3.20
2023-04-25T16:11:08.854Z,3.80
2023-04-25T16:13:40.383Z,4.00
2023-04-25T16:18:43.476Z,4.40
2023-04-25T16:21:17.327Z,4.40
2023-04-25T16:23:49.643Z,4.80
2023-04-25T16:26:22.875Z,3.90
2023-04-25T16:28:54.419Z,4.20
2023-04-25T16:31:26.277Z,3.80
2023-04-25T16:33:57.693Z,4.30
2023-04-25T16:36:29.338Z,4.60
2023-04-25T16:39:01.463Z,4.40
2023-04-25T16:41:32.839Z,3.90
2023-04-25T16:44:07.087Z,4.20
2023-04-25T16:46:40.281Z,4.90
2023-04-25T16:49:11.697Z,5.20
2023-04-25T16:51:43.123Z,5.20
2023-04-25T16:54:14.598Z,4.80
2023-04-25T16:56:46.376Z,4.70
2023-04-25T16:59:18.415Z,4.90
2023-04-25T17:01:49.831Z,4.80
2023-04-25T17:04:22.082Z,5.60
2023-04-25T17:06:53.707Z,5.50
2023-04-25T17:09:25.027Z,5.80
2023-04-25T17:11:56.456Z,5.60
2023-04-25T17:14:28.151Z,5.40
2023-04-25T17:16:59.601Z,5.80
2023-04-25T17:19:32.072Z,5.70
2023-04-25T17:22:03.963Z,5.60
2023-04-25T17:27:05.241Z,5.30
2023-04-25T17:29:37.155Z,5.40
2023-04-25T17:32:08.903Z,5.70
2023-04-25T17:34:41.523Z,5.50
2023-04-25T17:37:16.437Z,5.90
2023-04-25T17:39:47.850Z,5.50
2023-04-25T17:42:19.398Z,5.50
2023-04-25T17:44:50.726Z,6.30
2023-04-25T17:47:22.148Z,6.00
2023-04-25T17:49:55.212Z,5.70
2023-04-25T17:52:27.631Z,5.30
2023-04-25T17:54:59.811Z,6.70
2023-04-25T17:57:31.885Z,5.60
2023-04-25T18:00:05.668Z,5.50
2023-04-25T18:02:45.640Z,6.20
2023-04-25T18:05:18.065Z,5.90
2023-04-25T18:07:49.640Z,6.10
2023-04-25T18:10:21.627Z,6.40
2023-04-25T18:12:53.244Z,6.40
2023-04-25T18:15:25.205Z,5.20
2023-04-25T18:17:58.217Z,6.30
2023-04-25T18:20:29.900Z,5.90
2023-04-25T18:23:01.519Z,5.80
2023-04-25T18:25:33.054Z,5.50
2023-04-25T18:28:04.741Z,6.50
2023-04-25T18:30:36.223Z,6.00
2023-04-25T18:33:07.699Z,6.40
2023-04-25T18:35:45.046Z,5.90
2023-04-25T18:38:34.926Z,4.80
2023-04-25T18:41:33.903Z,6.00
2023-04-25T18:44:02.646Z,5.90
2023-04-25T18:46:34.269Z,5.80
2023-04-25T18:49:06.788Z,5.50
2023-04-25T18:51:38.168Z,6.60
2023-04-25T18:54:12.335Z,8.10
2023-04-25T18:56:43.694Z,6.70
2023-04-25T18:59:15.780Z,6.80
2023-04-25T19:01:47.347Z,6.90
2023-04-25T19:04:19.052Z,7.10
2023-04-25T19:06:53.115Z,6.20
2023-04-25T19:09:25.214Z,7.10
2023-04-25T19:11:57.723Z,6.30
2023-04-25T19:14:29.097Z,6.10
2023-04-25T19:17:00.904Z,6.00
2023-04-25T19:19:32.729Z,5.80
2023-04-25T19:24:36.316Z,6.10
2023-04-25T19:27:07.775Z,6.30
2023-04-25T19:29:46.125Z,6.20
2023-04-25T19:32:17.954Z,5.80
2023-04-25T19:34:49.802Z,6.10
2023-04-25T19:37:21.179Z,6.40
2023-04-25T19:39:52.793Z,5.50
2023-04-25T19:42:24.342Z,5.50
2023-04-25T19:44:55.945Z,5.30
2023-04-25T19:47:28.705Z,5.40
2023-04-25T19:50:00.270Z,6.10
2023-04-25T19:52:32.526Z,6.20
2023-04-25T19:55:05.248Z,6.00
2023-04-25T19:57:38.266Z,5.20
2023-04-25T20:00:13.001Z,6.50
2023-04-25T20:02:45.623Z,5.90
2023-04-25T20:05:17.942Z,6.20
2023-04-25T20:07:49.279Z,5.90
2023-04-25T20:10:20.931Z,5.00
2023-04-25T20:12:52.328Z,5.90
2023-04-25T20:15:23.842Z,5.60
2023-04-25T20:17:55.334Z,6.30
2023-04-25T20:20:26.789Z,5.40
2023-04-25T20:22:58.340Z,5.80
2023-04-25T20:25:30.103Z,6.10
2023-04-25T20:28:01.703Z,6.00
2023-04-25T20:30:33.403Z,6.00
2023-04-25T20:35:37.046Z,5.90
2023-04-25T20:38:08.549Z,6.20
2023-04-25T20:40:40.068Z,5.40
2023-04-25T20:43:13.291Z,5.80
2023-04-25T20:45:44.730Z,6.10
2023-04-25T20:48:16.361Z,6.40
2023-04-25T20:50:48.044Z,6.30
2023-04-25T20:53:19.629Z,5.80
2023-04-25T20:55:51.307Z,5.00
2023-04-25T21:00:53.335Z,5.30
2023-04-25T21:03:27.758Z,6.00
2023-04-25T21:05:59.347Z,5.90
2023-04-25T21:08:30.758Z,6.10
2023-04-25T21:11:02.289Z,6.40
2023-04-25T21:13:33.956Z,6.30
2023-04-25T21:18:35.493Z,6.20
2023-04-25T21:23:37.120Z,5.40
2023-04-25T21:26:08.459Z,5.20
2023-04-25T21:28:39.936Z,5.60
2023-04-25T21:31:11.361Z,5.50
2023-04-25T21:33:42.770Z,5.00
2023-04-25T21:36:14.150Z,5.70
2023-04-25T21:38:46.512Z,5.30
2023-04-25T21:41:17.931Z,5.70
2023-04-25T21:43:49.371Z,7.50
2023-04-25T21:46:23.822Z,6.10
2023-04-25T21:48:55.995Z,5.50
2023-04-25T21:51:29.201Z,5.90
2023-04-25T21:54:05.368Z,5.90
2023-04-25T21:56:37.143Z,5.70
2023-04-25T21:59:08.586Z,6.50
2023-04-25T22:01:40.077Z,6.10
2023-04-25T22:04:11.846Z,6.50
2023-04-25T22:06:43.502Z,6.20
2023-04-25T22:09:15.693Z,7.30
2023-04-25T22:11:48.393Z,6.10
2023-04-25T22:14:20.007Z,6.60
2023-04-25T22:19:21.664Z,6.50
2023-04-25T22:21:54.321Z,5.90
2023-04-25T22:24:29.691Z,6.10
2023-04-25T22:27:01.089Z,6.50
2023-04-25T22:29:32.997Z,6.50
2023-04-25T22:34:34.505Z,6.20
2023-04-25T22:37:06.011Z,6.90
2023-04-25T22:39:38.077Z,6.60
2023-04-25T22:42:09.429Z,6.40
2023-04-25T22:44:40.959Z,6.20
2023-04-25T22:47:12.437Z,6.10
2023-04-25T22:49:44.599Z,6.40
2023-04-25T22:52:17.342Z,7.10
2023-04-25T22:54:48.846Z,7.10
2023-04-25T22:57:21.640Z,6.70
2023-04-25T22:59:56.806Z,6.20
2023-04-25T23:02:28.437Z,6.60
2023-04-25T23:07:32.155Z,6.20
2023-04-25T23:10:03.835Z,6.10
2023-04-25T23:15:05.919Z,5.30
2023-04-25T23:17:38.468Z,6.10
2023-04-25T23:20:12.230Z,6.20
2023-04-25T23:22:43.783Z,6.50
2023-04-25T23:25:15.449Z,6.40
2023-04-25T23:27:48.063Z,5.30
2023-04-25T23:30:20.608Z,6.40
2023-04-25T23:32:52.084Z,5.80
2023-04-25T23:37:54.184Z,6.20
2023-04-25T23:40:26.395Z,7.60
2023-04-25T23:42:57.842Z,6.50
2023-04-25T23:45:29.418Z,5.60
2023-04-25T23:48:01.149Z,5.60
2023-04-25T23:50:32.770Z,6.30
2023-04-25T23:53:04.318Z,5.90
2023-04-25T23:55:35.756Z,6.00
2023-04-25T23:58:08.217Z,5.80
